createdAt,value
2023-03-02T00:04:48.378Z,59.57
2023-03-02T00:10:10.332Z,59.74
2023-03-02T00:15:31.025Z,59.72
2023-03-02T00:20:51.928Z,60.18
2023-03-02T00:26:12.467Z,60.03
2023-03-02T00:31:34.223Z,60.38
2023-03-02T00:36:54.806Z,60.26
2023-03-02T00:42:15.702Z,60.13
2023-03-02T00:47:37.399Z,60.46
2023-03-02T00:52:58.191Z,60.82
2023-03-02T00:58:19.024Z,60.66
2023-03-02T01:03:40.203Z,60.48
2023-03-02T01:09:01.811Z,60.88
2023-03-02T01:14:23.052Z,60.32
2023-03-02T01:19:44.046Z,60.33
2023-03-02T01:25:05.517Z,60.86
2023-03-02T01:30:26.443Z,60.75
2023-03-02T01:35:47.891Z,60.50
2023-03-02T01:41:08.740Z,60.55
2023-03-02T01:46:35.261Z,60.76
2023-03-02T01:51:56.814Z,60.23
2023-03-02T01:57:23.915Z,60.36
2023-03-02T02:02:45.522Z,60.11
2023-03-02T02:08:07.536Z,59.84
2023-03-02T02:13:28.745Z,60.44
2023-03-02T02:18:49.560Z,59.94
2023-03-02T02:24:16.211Z,60.26
2023-03-02T02:29:47.446Z,59.93
2023-03-02T02:35:22.100Z,60.46
2023-03-02T02:40:51.746Z,60.05
2023-03-02T02:46:15.474Z,60.13
2023-03-02T02:51:37.170Z,60.46
2023-03-02T02:56:59.652Z,60.15
2023-03-02T03:02:27.888Z,60.28
2023-03-02T03:07:49.726Z,60.71
2023-03-02T03:13:12.455Z,60.41
2023-03-02T03:18:33.257Z,60.03
2023-03-02T03:23:54.556Z,59.88
2023-03-02T03:29:17.460Z,59.86
2023-03-02T03:34:41.012Z,59.71
2023-03-02T03:40:09.896Z,59.83
2023-03-02T03:45:33.478Z,59.90
2023-03-02T03:50:54.127Z,60.12
2023-03-02T03:56:15.425Z,59.98
2023-03-02T04:01:38.058Z,60.00
2023-03-02T04:06:59.733Z,60.15
2023-03-02T04:12:20.751Z,60.25
2023-03-02T04:17:45.717Z,60.31
2023-03-02T04:23:09.256Z,60.31
2023-03-02T04:28:29.988Z,60.25
2023-03-02T04:33:52.262Z,60.67
2023-03-02T04:39:16.815Z,60.51
2023-03-02T04:44:42.452Z,60.54
2023-03-02T04:50:03.499Z,60.70
2023-03-02T04:55:26.087Z,60.92
2023-03-02T05:00:46.941Z,60.80
2023-03-02T05:06:08.392Z,60.93
2023-03-02T05:11:29.485Z,60.69
2023-03-02T05:16:50.278Z,61.12
2023-03-02T05:22:11.140Z,61.02
2023-03-02T05:27:31.982Z,61.46
2023-03-02T05:32:53.130Z,61.24
2023-03-02T05:38:14.801Z,61.22
2023-03-02T05:43:36.438Z,61.08
2023-03-02T05:48:57.714Z,61.20
2023-03-02T05:54:18.735Z,61.72
2023-03-02T05:59:39.765Z,61.76
2023-03-02T06:05:00.509Z,62.19
2023-03-02T06:10:21.361Z,61.71
2023-03-02T06:15:43.199Z,61.41
2023-03-02T06:21:04.427Z,61.76
2023-03-02T06:26:25.628Z,61.30
2023-03-02T06:31:46.683Z,61.76
2023-03-02T06:37:07.418Z,61.92
2023-03-02T06:42:28.847Z,61.82
2023-03-02T06:47:50.042Z,61.77
2023-03-02T06:53:10.740Z,61.11
2023-03-02T06:58:31.416Z,62.01
2023-03-02T07:03:52.177Z,61.42
2023-03-02T07:09:12.836Z,61.59
2023-03-02T07:14:36.368Z,61.62
2023-03-02T07:19:57.141Z,61.09
2023-03-02T07:25:18.034Z,61.12
2023-03-02T07:30:38.720Z,61.12
2023-03-02T07:35:59.510Z,61.74
2023-03-02T07:41:20.079Z,61.49
2023-03-02T07:46:41.080Z,61.12
2023-03-02T07:52:02.958Z,61.05
2023-03-02T07:57:23.939Z,60.18
2023-03-02T08:02:45.210Z,59.99
2023-03-02T08:08:06.194Z,60.25
2023-03-02T08:13:27.086Z,60.44
2023-03-02T08:18:47.913Z,60.27
2023-03-02T08:24:10.262Z,59.58
2023-03-02T08:29:31.216Z,59.82
2023-03-02T08:34:52.564Z,59.57
2023-03-02T08:40:13.304Z,59.06
2023-03-02T08:45:34.940Z,58.54
2023-03-02T08:51:03.371Z,58.36
2023-03-02T08:56:27.358Z,58.13
2023-03-02T09:01:48.357Z,57.56
2023-03-02T09:07:09.802Z,57.63
2023-03-02T09:12:30.525Z,57.59
2023-03-02T09:17:51.299Z,57.55
2023-03-02T09:23:13.703Z,57.05
2023-03-02T09:28:36.274Z,56.78
2023-03-02T09:33:57.283Z,57.50
2023-03-02T09:39:19.489Z,57.48
2023-03-02T09:45:01.933Z,57.81
2023-03-02T09:50:34.171Z,57.88
2023-03-02T09:56:00.266Z,58.02
2023-03-02T10:01:30.509Z,58.16
2023-03-02T10:07:01.443Z,58.55
2023-03-02T10:12:40.796Z,58.38
2023-03-02T10:18:23.473Z,59.07
2023-03-02T10:24:07.888Z,58.51
2023-03-02T10:29:49.075Z,59.13
2023-03-02T10:35:19.393Z,58.79
2023-03-02T10:40:42.321Z,59.11
2023-03-02T10:46:07.637Z,58.87
2023-03-02T10:51:31.213Z,58.96
2023-03-02T10:56:55.229Z,58.79
2023-03-02T11:02:24.717Z,58.69
2023-03-02T11:08:17.357Z,58.91
2023-03-02T11:13:39.548Z,58.65
2023-03-02T11:19:29.903Z,59.30
2023-03-02T11:24:56.159Z,58.69
2023-03-02T11:30:20.408Z,58.50
2023-03-02T11:36:06.618Z,58.86
2023-03-02T11:41:33.874Z,58.92
2023-03-02T11:47:01.260Z,59.05
2023-03-02T11:52:24.918Z,58.43
2023-03-02T11:57:50.778Z,58.83
2023-03-02T12:03:24.600Z,58.46
2023-03-02T12:08:46.888Z,58.00
2023-03-02T12:14:28.920Z,58.14
2023-03-02T12:19:50.967Z,58.01
2023-03-02T12:25:21.476Z,58.11
2023-03-02T12:30:42.298Z,57.72
2023-03-02T12:36:16.719Z,57.49
2023-03-02T12:42:13.823Z,57.23
2023-03-02T12:47:35.336Z,57.03
2023-03-02T12:53:01.860Z,56.74
2023-03-02T12:58:25.941Z,56.75
2023-03-02T13:03:48.728Z,56.50
2023-03-02T13:09:15.234Z,56.63
2023-03-02T13:14:35.962Z,56.74
2023-03-02T13:20:03.285Z,56.28
2023-03-02T13:25:31.732Z,55.96
2023-03-02T13:30:58.110Z,55.95
2023-03-02T13:36:23.606Z,55.72
2023-03-02T13:41:56.584Z,55.65
2023-03-02T13:47:24.017Z,54.92
2023-03-02T13:52:45.018Z,55.22
2023-03-02T13:58:13.546Z,54.71
2023-03-02T14:03:34.104Z,54.54
2023-03-02T14:08:54.869Z,54.42
2023-03-02T14:14:22.737Z,54.89
2023-03-02T14:19:43.472Z,54.85
2023-03-02T14:25:04.376Z,54.40
2023-03-02T14:30:25.298Z,54.37
2023-03-02T14:35:46.684Z,54.10
2023-03-02T14:41:07.521Z,54.08
2023-03-02T14:46:28.274Z,54.53
2023-03-02T14:52:18.019Z,53.74
2023-03-02T14:57:39.110Z,53.44
2023-03-02T15:03:00.036Z,53.43
2023-03-02T15:08:22.420Z,53.13
2023-03-02T15:13:45.679Z,52.73
2023-03-02T15:19:06.925Z,53.10
2023-03-02T15:24:27.790Z,54.42
2023-03-02T15:29:48.598Z,53.35
2023-03-02T15:35:09.932Z,53.00
2023-03-02T15:40:30.787Z,52.97
2023-03-02T15:45:51.520Z,52.50
2023-03-02T15:51:12.316Z,52.94
2023-03-02T15:56:43.736Z,52.55
2023-03-02T16:02:05.290Z,52.80
2023-03-02T16:07:26.587Z,52.74
2023-03-02T16:12:47.255Z,52.67
2023-03-02T16:18:09.764Z,52.75
2023-03-02T16:23:30.670Z,52.75
2023-03-02T16:28:51.400Z,52.68
2023-03-02T16:34:13.102Z,52.77
2023-03-02T16:39:34.198Z,52.98
2023-03-02T16:44:54.920Z,52.98
2023-03-02T16:50:17.058Z,53.07
2023-03-02T16:55:38.082Z,52.88
2023-03-02T17:00:58.912Z,53.05
2023-03-02T17:06:22.729Z,52.78
2023-03-02T17:11:43.715Z,53.35
2023-03-02T17:17:04.669Z,56.79
2023-03-02T17:22:25.490Z,53.23
2023-03-02T17:27:46.361Z,52.33
2023-03-02T17:33:07.676Z,52.45
2023-03-02T17:38:28.487Z,52.56
2023-03-02T17:43:49.090Z,52.97
2023-03-02T17:49:09.894Z,52.96
2023-03-02T17:54:30.668Z,53.02
2023-03-02T17:59:51.795Z,52.99
2023-03-02T18:05:13.456Z,53.02
2023-03-02T18:10:34.633Z,53.61
2023-03-02T18:15:55.489Z,53.33
2023-03-02T18:21:16.628Z,53.40
2023-03-02T18:26:37.692Z,53.32
2023-03-02T18:31:59.630Z,53.39
2023-03-02T18:37:20.958Z,53.26
2023-03-02T18:42:42.094Z,52.97
2023-03-02T18:48:03.294Z,53.56
2023-03-02T18:53:24.609Z,53.67
2023-03-02T18:58:46.124Z,53.70
2023-03-02T19:04:07.169Z,53.05
2023-03-02T19:09:28.600Z,53.04
2023-03-02T19:14:49.639Z,53.13
2023-03-02T19:20:16.903Z,53.75
2023-03-02T19:25:38.751Z,53.36
2023-03-02T19:31:06.838Z,53.52
2023-03-02T19:36:28.000Z,53.45
2023-03-02T19:41:48.739Z,52.93
2023-03-02T19:47:09.489Z,52.97
2023-03-02T19:52:30.857Z,53.74
2023-03-02T19:57:59.592Z,53.53
2023-03-02T20:03:20.840Z,54.32
2023-03-02T20:08:42.123Z,53.83
2023-03-02T20:14:02.638Z,53.95
2023-03-02T20:19:23.456Z,53.89
2023-03-02T20:24:44.594Z,54.20
2023-03-02T20:30:10.315Z,54.05
2023-03-02T20:35:33.106Z,54.07
2023-03-02T20:40:54.193Z,54.21
2023-03-02T20:46:30.417Z,54.34
2023-03-02T20:51:54.755Z,53.54
2023-03-02T20:57:18.262Z,53.40
2023-03-02T21:02:39.325Z,52.99
2023-03-02T21:08:00.810Z,57.06
2023-03-02T21:13:22.571Z,53.68
2023-03-02T21:18:43.886Z,53.57
2023-03-02T21:24:05.011Z,53.38
2023-03-02T21:29:26.979Z,53.87
2023-03-02T21:34:47.875Z,53.05
2023-03-02T21:40:14.726Z,53.82
2023-03-02T21:45:37.082Z,54.17
2023-03-02T21:50:58.782Z,54.09
2023-03-02T21:56:22.457Z,54.04
2023-03-02T22:01:43.992Z,53.77
2023-03-02T22:07:04.906Z,54.00
2023-03-02T22:12:25.853Z,53.35
2023-03-02T22:17:47.099Z,53.53
2023-03-02T22:23:21.137Z,53.58
2023-03-02T22:28:41.962Z,53.72
2023-03-02T22:34:13.177Z,53.76
2023-03-02T22:39:34.173Z,54.06
2023-03-02T22:45:21.985Z,54.90
2023-03-02T22:50:45.595Z,55.01
2023-03-02T22:56:21.182Z,54.63
2023-03-02T23:01:44.744Z,54.95
2023-03-02T23:07:16.748Z,55.30
2023-03-02T23:12:46.728Z,54.96
2023-03-02T23:18:29.567Z,55.13
2023-03-02T23:23:51.109Z,54.95
2023-03-02T23:29:12.208Z,55.40
2023-03-02T23:34:33.299Z,55.12
2023-03-02T23:39:53.976Z,55.30
2023-03-02T23:45:16.005Z,55.51
2023-03-02T23:50:37.203Z,55.01
2023-03-02T23:55:58.078Z,55.24
